createdAt,value
2023-01-02T00:00:56.765Z,10.4
2023-01-02T00:05:58.763Z,10.3
2023-01-02T00:11:00.905Z,10.1
2023-01-02T00:16:03.608Z,9.8
2023-01-02T00:21:05.674Z,9.7
2023-01-02T00:26:07.618Z,9.6
2023-01-02T00:31:10.479Z,9.5
2023-01-02T00:36:12.535Z,9.4
2023-01-02T00:41:14.589Z,9.4
2023-01-02T00:46:16.886Z,9.2
2023-01-02T00:51:19.088Z,9.2
2023-01-02T00:56:21.397Z,9.1
2023-01-02T01:01:23.775Z,9.1
2023-01-02T01:11:26.294Z,9
2023-01-02T01:16:28.740Z,8.7
2023-01-02T01:21:30.795Z,8.6
2023-01-02T01:26:32.870Z,8.7
2023-01-02T01:31:35.085Z,8.6
2023-01-02T01:36:37.108Z,8.5
2023-01-02T01:41:40.077Z,8.4
2023-01-02T01:46:42.116Z,8.3
2023-01-02T01:51:44.223Z,8.3
2023-01-02T01:56:46.335Z,8.2
2023-01-02T02:01:49.973Z,8
2023-01-02T02:06:52.888Z,8
2023-01-02T02:11:54.907Z,8
2023-01-02T02:16:57.384Z,8
2023-01-02T02:21:59.586Z,7.9
2023-01-02T02:27:01.675Z,7.8
2023-01-02T02:32:04.324Z,7.8
2023-01-02T02:37:06.496Z,7.7
2023-01-02T02:42:08.612Z,7.8
2023-01-02T02:47:10.767Z,7.7
2023-01-02T02:52:12.782Z,7.6
2023-01-02T02:57:14.894Z,7.6
2023-01-02T03:02:19.032Z,7.3
2023-01-02T03:07:21.555Z,7.3
2023-01-02T03:12:23.597Z,7.2
2023-01-02T03:17:25.641Z,7.1
2023-01-02T03:22:27.684Z,7
2023-01-02T03:27:29.814Z,7.1
2023-01-02T03:32:31.982Z,7.1
2023-01-02T03:37:33.997Z,7.1
2023-01-02T03:42:36.091Z,7.2
2023-01-02T03:47:38.292Z,7.2
2023-01-02T03:52:40.267Z,7.2
2023-01-02T03:57:42.565Z,7.2
2023-01-02T04:02:45.226Z,7.2
2023-01-02T04:07:47.556Z,7.2
2023-01-02T04:12:49.618Z,7.2
2023-01-02T04:17:51.948Z,7.2
2023-01-02T04:22:53.955Z,7.2
2023-01-02T04:27:56.013Z,7.2
2023-01-02T04:32:58.127Z,7.2
2023-01-02T04:38:00.308Z,7.2
2023-01-02T04:43:02.408Z,7.2
2023-01-02T04:48:04.576Z,7.2
2023-01-02T04:53:06.952Z,7.2
2023-01-02T04:58:09.243Z,7.2
2023-01-02T05:03:11.482Z,7
2023-01-02T05:08:18.236Z,6.9
2023-01-02T05:13:22.910Z,6.9
2023-01-02T05:18:25.142Z,6.9
2023-01-02T05:23:28.325Z,7
2023-01-02T05:28:39.852Z,6.9
2023-01-02T05:33:32.015Z,6.9
2023-01-02T05:38:33.944Z,6.9
2023-01-02T05:43:36.044Z,6.9
2023-01-02T05:48:38.214Z,6.9
2023-01-02T05:53:40.356Z,6.9
2023-01-02T05:58:42.633Z,7
2023-01-02T06:03:44.908Z,6.9
2023-01-02T06:08:47.580Z,7
2023-01-02T06:13:49.648Z,7
2023-01-02T06:18:51.688Z,7.2
2023-01-02T06:23:53.774Z,7.2
2023-01-02T06:28:55.856Z,7.3
2023-01-02T06:33:58.048Z,7.4
2023-01-02T06:39:00.158Z,7.4
2023-01-02T06:44:02.282Z,7.5
2023-01-02T06:49:04.176Z,7.6
2023-01-02T06:54:06.160Z,7.6
2023-01-02T06:59:08.288Z,8
2023-01-02T07:04:10.320Z,8.8
2023-01-02T07:09:12.262Z,8.5
2023-01-02T07:14:14.275Z,8.9
2023-01-02T07:19:16.539Z,9.4
2023-01-02T07:24:18.611Z,8.8
2023-01-02T07:29:21.419Z,9.1
2023-01-02T07:34:24.152Z,8.7
2023-01-02T07:39:26.136Z,8.7
2023-01-02T07:44:28.103Z,9.5
2023-01-02T07:49:30.132Z,10.5
2023-01-02T07:54:32.187Z,13.9
2023-01-02T08:04:35.276Z,15.2
2023-01-02T08:09:38.098Z,15.2
2023-01-02T08:14:40.217Z,14.3
2023-01-02T08:19:42.198Z,13.2
2023-01-02T08:24:44.140Z,13.9
2023-01-02T08:29:46.102Z,16.2
2023-01-02T08:34:48.227Z,17.5
2023-01-02T08:39:50.170Z,19
2023-01-02T08:44:52.244Z,21.5
2023-01-02T08:49:54.581Z,22.9
2023-01-02T08:59:57.155Z,24
2023-01-02T09:04:59.051Z,24.8
2023-01-02T09:10:01.074Z,22.6
2023-01-02T09:15:03.101Z,23.2
2023-01-02T09:20:05.118Z,23.6
2023-01-02T09:25:07.061Z,24.9
2023-01-02T09:30:09.076Z,25.5
2023-01-02T09:35:11.030Z,25.3
2023-01-02T09:40:13.060Z,24.3
2023-01-02T09:45:15.179Z,25.3
2023-01-02T09:50:21.496Z,25.1
2023-01-02T09:55:23.464Z,25.3
2023-01-02T10:00:25.850Z,25.2
2023-01-02T10:05:27.869Z,24.6
2023-01-02T10:10:29.859Z,25.6
2023-01-02T10:15:31.906Z,25.8
2023-01-02T10:20:33.884Z,24.9
2023-01-02T10:25:36.134Z,25
2023-01-02T10:30:38.156Z,23.3
2023-01-02T10:35:40.660Z,24.8
2023-01-02T10:40:43.132Z,24.7
2023-01-02T10:45:45.069Z,23.4
2023-01-02T10:50:47.060Z,25.3
2023-01-02T10:55:49.439Z,23.2
2023-01-02T11:00:51.964Z,23.1
2023-01-02T11:05:54.456Z,26
2023-01-02T11:10:56.450Z,26
2023-01-02T11:15:58.908Z,24.5
2023-01-02T11:21:01.049Z,24.5
2023-01-02T11:26:03.013Z,25.2
2023-01-02T11:31:05.166Z,26.4
2023-01-02T11:36:07.399Z,28.5
2023-01-02T11:41:09.404Z,28.4
2023-01-02T11:46:11.590Z,26.7
2023-01-02T11:51:19.257Z,24.4
2023-01-02T11:56:21.294Z,24.2
2023-01-02T12:01:23.494Z,24.8
2023-01-02T12:06:25.570Z,26.8
2023-01-02T12:11:27.888Z,25.2
2023-01-02T12:16:29.891Z,25.1
2023-01-02T12:21:32.384Z,23.8
2023-01-02T12:26:34.570Z,23.7
2023-01-02T12:31:36.924Z,24.6
2023-01-02T12:36:39.419Z,22.8
2023-01-02T12:42:04.052Z,22.6
2023-01-02T12:46:46.062Z,22.7
2023-01-02T12:51:48.000Z,23.7
2023-01-02T12:56:49.885Z,23.1
2023-01-02T13:01:53.027Z,23.5
2023-01-02T13:06:55.155Z,23.4
2023-01-02T13:11:57.166Z,24.6
2023-01-02T13:16:59.196Z,23.3
2023-01-02T13:22:01.533Z,21.1
2023-01-02T13:27:03.494Z,21.2
2023-01-02T13:32:05.670Z,20.9
2023-01-02T13:37:07.704Z,20.1
2023-01-02T13:42:11.913Z,20.2
2023-01-02T13:47:31.932Z,19.4
2023-01-02T13:52:16.449Z,19.3
2023-01-02T13:57:18.620Z,18.6
2023-01-02T14:02:21.672Z,16.9
2023-01-02T14:07:24.193Z,16.8
2023-01-02T14:12:26.150Z,16.2
2023-01-02T14:17:28.266Z,15.9
2023-01-02T14:22:30.228Z,15.6
2023-01-02T14:27:34.827Z,15.2
2023-01-02T14:32:36.768Z,15.2
2023-01-02T14:37:38.931Z,14.9
2023-01-02T14:42:40.893Z,14.8
2023-01-02T14:47:43.002Z,14.6
2023-01-02T14:52:44.988Z,14.4
2023-01-02T14:57:47.253Z,14.2
2023-01-02T15:02:50.173Z,13.8
2023-01-02T15:07:52.930Z,13.8
2023-01-02T15:12:54.914Z,13.6
2023-01-02T15:17:56.885Z,13.5
2023-01-02T15:27:59.400Z,13.2
2023-01-02T15:33:01.481Z,13
2023-01-02T15:38:03.642Z,12.9
2023-01-02T15:43:05.782Z,12.8
2023-01-02T15:48:15.849Z,12.7
2023-01-02T15:53:07.991Z,12.7
2023-01-02T15:58:10.187Z,12.6
2023-01-02T16:03:12.862Z,12.5
2023-01-02T16:08:14.973Z,12.4
2023-01-02T16:13:16.935Z,12.3
2023-01-02T16:18:19.242Z,12.2
2023-01-02T16:23:21.120Z,12.2
2023-01-02T16:28:38.284Z,12
2023-01-02T16:33:30.292Z,12
2023-01-02T16:38:32.312Z,12
2023-01-02T16:43:44.503Z,11.8
2023-01-02T16:48:36.574Z,11.8
2023-01-02T16:53:38.730Z,11.7
2023-01-02T16:58:41.087Z,11.7
2023-01-02T17:03:43.250Z,11.6
2023-01-02T17:08:45.438Z,11.5
2023-01-02T17:13:47.685Z,11.4
2023-01-02T17:18:50.144Z,11.3
2023-01-02T17:23:53.501Z,11.2
2023-01-02T17:28:55.494Z,11.2
2023-01-02T17:33:57.584Z,11.1
2023-01-02T17:38:59.639Z,11
2023-01-02T17:44:05.050Z,10.8
2023-01-02T17:49:07.029Z,10.8
2023-01-02T17:54:09.056Z,10.8
2023-01-02T17:59:11.202Z,10.8
2023-01-02T18:04:13.784Z,10.8
2023-01-02T18:14:16.428Z,10.6
2023-01-02T18:19:19.383Z,10.6
2023-01-02T18:24:21.361Z,10.5
2023-01-02T18:29:23.293Z,10.5
2023-01-02T18:34:57.463Z,10.4
2023-01-02T18:39:27.327Z,10.4
2023-01-02T18:44:29.248Z,10.3
2023-01-02T18:49:31.336Z,10.2
2023-01-02T18:54:33.678Z,10.2
2023-01-02T18:59:35.370Z,10
2023-01-02T19:04:37.881Z,9.9
2023-01-02T19:09:39.999Z,9.8
2023-01-02T19:14:42.131Z,9.7
2023-01-02T19:19:44.116Z,9.7
2023-01-02T19:24:46.137Z,9.6
2023-01-02T19:29:48.141Z,9.7
2023-01-02T19:34:50.514Z,9.7
2023-01-02T19:39:52.501Z,9.6
2023-01-02T19:44:54.432Z,9.5
2023-01-02T19:49:56.399Z,9.4
2023-01-02T19:54:58.971Z,9.3
2023-01-02T20:00:01.052Z,9.2
2023-01-02T20:05:03.410Z,9.1
2023-01-02T20:10:05.376Z,9
2023-01-02T20:15:07.425Z,8.9
2023-01-02T20:20:11.012Z,8.6
2023-01-02T20:25:13.830Z,8.5
2023-01-02T20:30:25.829Z,8.5
2023-01-02T20:35:17.981Z,8.5
2023-01-02T20:40:20.077Z,8.4
2023-01-02T20:45:22.195Z,8.4
2023-01-02T20:50:26.861Z,8.3
2023-01-02T20:55:29.777Z,8.2
2023-01-02T21:00:32.010Z,8.1
2023-01-02T21:05:34.000Z,8.2
2023-01-02T21:10:36.208Z,8.1
2023-01-02T21:15:39.072Z,8.3
2023-01-02T21:20:48.369Z,8.4
2023-01-02T21:25:53.035Z,8.4
2023-01-02T21:30:58.083Z,8.5
2023-01-02T21:36:01.568Z,8.7
2023-01-02T21:41:03.878Z,8.9
2023-01-02T21:46:06.897Z,8.9
2023-01-02T21:51:09.152Z,8.8
2023-01-02T21:56:11.704Z,9
2023-01-02T22:01:14.908Z,9.1
2023-01-02T22:06:17.425Z,9.1
2023-01-02T22:11:19.767Z,9.2
2023-01-02T22:16:23.258Z,9.3
2023-01-02T22:21:25.301Z,9.3
2023-01-02T22:26:27.387Z,9.3
2023-01-02T22:31:29.895Z,9.3
2023-01-02T22:36:32.036Z,9.2
2023-01-02T22:41:34.087Z,9.2
2023-01-02T22:46:36.835Z,9
2023-01-02T22:52:08.794Z,9
2023-01-02T22:56:40.919Z,8.9
2023-01-02T23:01:43.553Z,8.8
2023-01-02T23:07:25.603Z,8.8
2023-01-02T23:11:47.648Z,8.8
2023-01-02T23:16:50.243Z,8.7
2023-01-02T23:21:53.407Z,8.6
2023-01-02T23:26:55.657Z,8.6
2023-01-02T23:31:58.126Z,8.5
2023-01-02T23:37:00.500Z,8.4
2023-01-02T23:42:02.794Z,8.3
2023-01-02T23:47:19.726Z,8.1
2023-01-02T23:52:11.724Z,8.1
2023-01-02T23:57:13.973Z,8
